createdAt,value
2016-04-12T00:02:27.897Z,2
2016-04-12T00:05:46.500Z,2
2016-04-12T00:08:54.208Z,2
2016-04-12T00:11:55.934Z,2
2016-04-12T00:15:06.817Z,2
2016-04-12T00:18:19.685Z,2
2016-04-12T00:21:29.099Z,2
2016-04-12T00:24:47.657Z,2
2016-04-12T00:27:55.570Z,2
2016-04-12T00:30:57.171Z,2
2016-04-12T00:34:09.785Z,2
2016-04-12T00:37:20.934Z,2
2016-04-12T00:40:33.711Z,2
2016-04-12T00:43:52.265Z,6
2016-04-12T00:46:53.992Z,6
2016-04-12T00:50:06.767Z,6
2016-04-12T00:53:19.336Z,6
2016-04-12T00:56:30.361Z,6
2016-04-12T00:59:48.996Z,6
2016-04-12T01:02:50.895Z,6
2016-04-12T01:06:03.574Z,6
2016-04-12T01:09:16.286Z,6
2016-04-12T01:12:26.873Z,6
2016-04-12T01:15:39.851Z,6
2016-04-12T01:18:55.594Z,6
2016-04-12T01:21:57.399Z,6
2016-04-12T01:25:10.360Z,6
2016-04-12T01:28:23.055Z,6
2016-04-12T01:31:34.332Z,6
2016-04-12T01:34:49.496Z,6
2016-04-12T01:37:51.192Z,6
2016-04-12T01:41:04.043Z,6
2016-04-12T01:44:16.802Z,6
2016-04-12T01:47:28.919Z,6
2016-04-12T01:50:47.649Z,6
2016-04-12T01:53:55.453Z,6
2016-04-12T01:56:57.228Z,6
2016-04-12T02:00:06.845Z,6
2016-04-12T02:03:17.088Z,6
2016-04-12T02:06:29.564Z,6
2016-04-12T02:09:47.934Z,6
2016-04-12T02:12:55.801Z,6
2016-04-12T02:15:57.466Z,6
2016-04-12T02:19:10.146Z,6
2016-04-12T02:22:20.701Z,6
2016-04-12T02:25:31.725Z,6
2016-04-12T02:28:50.532Z,6
2016-04-12T02:31:52.227Z,6
2016-04-12T02:35:04.221Z,6
2016-04-12T02:38:16.947Z,6
2016-04-12T02:41:27.190Z,6
2016-04-12T02:44:39.826Z,6
2016-04-12T02:47:50.755Z,6
2016-04-12T02:51:03.200Z,6
2016-04-12T02:54:15.646Z,6
2016-04-12T02:57:28.279Z,6
2016-04-12T03:00:46.790Z,6
2016-04-12T03:03:54.595Z,6
2016-04-12T03:06:56.368Z,6
2016-04-12T03:10:08.892Z,6
2016-04-12T03:13:20.323Z,6
2016-04-12T03:16:32.767Z,6
2016-04-12T03:19:51.451Z,6
2016-04-12T03:22:53.225Z,7
2016-04-12T03:26:04.295Z,7
2016-04-12T03:29:14.990Z,7
2016-04-12T03:32:23.779Z,7
2016-04-12T03:35:33.804Z,7
2016-04-12T03:38:51.830Z,6
2016-04-12T03:41:53.573Z,7
2016-04-12T03:45:06.206Z,7
2016-04-12T03:48:18.775Z,8
2016-04-12T03:51:29.361Z,9
2016-04-12T03:54:47.733Z,11
2016-04-12T03:57:55.536Z,14
2016-04-12T04:00:57.311Z,14
2016-04-12T04:04:10.007Z,21
2016-04-12T04:07:19.498Z,29
2016-04-12T04:10:30.194Z,39
2016-04-12T04:13:49.034Z,56
2016-04-12T04:16:50.806Z,69
2016-04-12T04:20:00.221Z,68
2016-04-12T04:23:12.776Z,102
2016-04-12T04:26:25.441Z,178
2016-04-12T04:29:38.217Z,255
2016-04-12T04:32:50.897Z,281
2016-04-12T04:36:03.607Z,350
2016-04-12T04:39:16.257Z,395
2016-04-12T04:42:27.468Z,463
2016-04-12T04:45:40.104Z,557
2016-04-12T04:48:55.737Z,587
2016-04-12T04:51:57.417Z,593
2016-04-12T04:55:06.284Z,631
2016-04-12T04:58:18.885Z,739
2016-04-12T05:01:31.644Z,796
2016-04-12T05:04:47.061Z,864
2016-04-12T05:07:54.804Z,1006
2016-04-12T05:10:56.618Z,1123
2016-04-12T05:14:09.470Z,1066
2016-04-12T05:17:22.087Z,932
2016-04-12T05:20:32.517Z,1073
2016-04-12T05:23:51.341Z,1122
2016-04-12T05:26:53.224Z,1199
2016-04-12T05:30:05.825Z,1192
2016-04-12T05:33:18.568Z,1182
2016-04-12T05:36:29.638Z,1280
2016-04-12T05:39:48.259Z,1434
2016-04-12T05:42:56.079Z,1786
2016-04-12T05:45:57.868Z,2082
2016-04-12T05:49:10.611Z,2035
2016-04-12T05:52:23.291Z,2073
2016-04-12T05:55:35.814Z,2030
2016-04-12T05:58:54.591Z,2104
2016-04-12T06:01:56.458Z,2414
2016-04-12T06:05:05.904Z,2904
2016-04-12T06:08:16.381Z,3339
2016-04-12T06:11:27.201Z,3862
2016-04-12T06:14:37.381Z,4511
2016-04-12T06:17:56.329Z,2836
2016-04-12T06:20:58.259Z,1892
2016-04-12T06:24:09.580Z,1983
2016-04-12T06:27:19.322Z,1934
2016-04-12T06:30:32.111Z,1945
2016-04-12T06:33:47.779Z,2142
2016-04-12T06:36:55.724Z,2643
2016-04-12T06:39:57.561Z,2393
2016-04-12T06:43:10.334Z,2110
2016-04-12T06:46:23.029Z,1484
2016-04-12T06:49:35.850Z,785
2016-04-12T06:52:52.283Z,647
2016-04-12T06:55:54.167Z,678
2016-04-12T06:59:03.471Z,824
2016-04-12T07:02:13.713Z,958
2016-04-12T07:05:25.205Z,934
2016-04-12T07:08:36.354Z,874
2016-04-12T07:11:52.646Z,806
2016-04-12T07:14:54.248Z,771
2016-04-12T07:18:07.459Z,797
2016-04-12T07:21:16.703Z,944
2016-04-12T07:24:29.413Z,1006
2016-04-12T07:27:48.174Z,1006
2016-04-12T07:30:56.135Z,1144
2016-04-12T07:33:57.909Z,1234
2016-04-12T07:37:10.605Z,1311
2016-04-12T07:40:22.738Z,1460
2016-04-12T07:43:35.734Z,1636
2016-04-12T07:46:54.451Z,1925
2016-04-12T07:49:56.386Z,2630
2016-04-12T07:53:06.137Z,2821
2016-04-12T07:56:18.304Z,2711
2016-04-12T07:59:28.698Z,2579
2016-04-12T08:02:38.571Z,2464
2016-04-12T08:05:51.476Z,2591
2016-04-12T08:09:01.881Z,2760
2016-04-12T08:12:11.750Z,2658
2016-04-12T08:15:24.763Z,2207
2016-04-12T08:18:37.692Z,2032
2016-04-12T08:21:56.719Z,2360
2016-04-12T08:24:58.711Z,2415
2016-04-12T08:28:11.657Z,1862
2016-04-12T08:31:24.509Z,2155
2016-04-12T08:34:37.360Z,2508
2016-04-12T08:37:56.090Z,2664
2016-04-12T08:40:58.083Z,2720
2016-04-12T08:44:09.419Z,2733
2016-04-12T08:47:22.192Z,2458
2016-04-12T08:50:35.044Z,2315
2016-04-12T08:53:53.868Z,2156
2016-04-12T08:56:55.907Z,2137
2016-04-12T09:00:08.634Z,2324
2016-04-12T09:03:21.704Z,2530
2016-04-12T09:06:33.009Z,2707
2016-04-12T09:09:51.822Z,2823
2016-04-12T09:12:53.861Z,2735
2016-04-12T09:16:04.478Z,2817
2016-04-12T09:19:14.252Z,2596
2016-04-12T09:22:26.979Z,2638
2016-04-12T09:25:39.065Z,2784
2016-04-12T09:28:51.763Z,2460
2016-04-12T09:32:02.146Z,2405
2016-04-12T09:35:14.890Z,2313
2016-04-12T09:38:27.615Z,2344
2016-04-12T09:41:37.390Z,2371
2016-04-12T09:44:53.869Z,2540
2016-04-12T09:47:55.814Z,2781
2016-04-12T09:51:05.541Z,3140
2016-04-12T09:54:18.566Z,3541
2016-04-12T09:57:29.651Z,3701
2016-04-12T10:00:48.475Z,3614
2016-04-12T10:03:56.498Z,3377
2016-04-12T10:06:58.616Z,3184
2016-04-12T10:10:10.920Z,3441
2016-04-12T10:13:23.881Z,3331
2016-04-12T10:16:36.765Z,3146
2016-04-12T10:19:55.588Z,3224
2016-04-12T10:22:57.737Z,3770
2016-04-12T10:26:10.510Z,4167
2016-04-12T10:29:23.440Z,4445
2016-04-12T10:32:34.229Z,4746
2016-04-12T10:35:51.819Z,5046
2016-04-12T10:38:53.951Z,5318
2016-04-12T10:42:07.037Z,6295
2016-04-12T10:45:20.062Z,5630
2016-04-12T10:48:31.820Z,4917
2016-04-12T10:51:50.519Z,5719
2016-04-12T10:54:52.698Z,5693
2016-04-12T10:58:05.721Z,5352
2016-04-12T11:01:18.635Z,6587
2016-04-12T11:04:30.862Z,6509
2016-04-12T11:07:49.701Z,5134
2016-04-12T11:10:51.975Z,6054
2016-04-12T11:14:05.015Z,5762
2016-04-12T11:17:18.038Z,8010
2016-04-12T11:20:31.233Z,9749
2016-04-12T11:23:50.433Z,11653
2016-04-12T11:26:52.737Z,10475
2016-04-12T11:30:05.464Z,8522
2016-04-12T11:33:18.535Z,8534
2016-04-12T11:36:31.918Z,7203
2016-04-12T11:39:50.381Z,6889
2016-04-12T11:42:52.701Z,6889
2016-04-12T11:46:05.741Z,6060
2016-04-12T11:49:16.297Z,5741
2016-04-12T11:52:29.538Z,5469
2016-04-12T11:55:48.109Z,4807
2016-04-12T11:58:56.370Z,4586
2016-04-12T12:01:58.566Z,4542
2016-04-12T12:05:11.699Z,4034
2016-04-12T12:08:24.738Z,3501
2016-04-12T12:11:37.792Z,3725
2016-04-12T12:14:50.928Z,3490
2016-04-12T12:18:01.781Z,3187
2016-04-12T12:21:14.867Z,2841
2016-04-12T12:24:27.641Z,2646
2016-04-12T12:27:47.070Z,2507
2016-04-12T12:30:55.285Z,2776
2016-04-12T12:33:57.589Z,3257
2016-04-12T12:37:08.316Z,3342
2016-04-12T12:40:21.590Z,3336
2016-04-12T12:43:34.488Z,3448
2016-04-12T12:46:52.106Z,3682
2016-04-12T12:49:54.460Z,3865
2016-04-12T12:53:07.608Z,3492
2016-04-12T12:56:20.664Z,3169
2016-04-12T12:59:30.500Z,3013
2016-04-12T13:02:49.555Z,3881
2016-04-12T13:05:51.797Z,4265
2016-04-12T13:09:04.795Z,4828
2016-04-12T13:12:15.476Z,5109
2016-04-12T13:15:28.484Z,4693
2016-04-12T13:18:47.742Z,4404
2016-04-12T13:21:56.049Z,4390
2016-04-12T13:24:58.464Z,4344
2016-04-12T13:28:08.784Z,4836
2016-04-12T13:31:19.839Z,5035
2016-04-12T13:34:32.863Z,4660
2016-04-12T13:37:51.871Z,4484
2016-04-12T13:40:54.160Z,4450
2016-04-12T13:44:04.706Z,4568
2016-04-12T13:47:15.313Z,4351
2016-04-12T13:50:25.305Z,4458
2016-04-12T13:53:37.829Z,4089
2016-04-12T13:56:53.837Z,3809
2016-04-12T13:59:56.376Z,4284
2016-04-12T14:03:09.325Z,3886
2016-04-12T14:06:22.630Z,3528
2016-04-12T14:09:35.778Z,3829
2016-04-12T14:12:54.740Z,3994
2016-04-12T14:15:56.841Z,4239
2016-04-12T14:19:10.086Z,4546
2016-04-12T14:22:23.376Z,4355
2016-04-12T14:25:35.977Z,4333
2016-04-12T14:28:52.688Z,4355
2016-04-12T14:31:54.947Z,4373
2016-04-12T14:35:05.332Z,4329
2016-04-12T14:38:18.215Z,4411
2016-04-12T14:41:29.881Z,4597
2016-04-12T14:44:49.013Z,4605
2016-04-12T14:47:51.427Z,4351
2016-04-12T14:51:04.000Z,3795
2016-04-12T14:54:17.243Z,3793
2016-04-12T14:57:30.516Z,3741
2016-04-12T15:00:49.650Z,3883
2016-04-12T15:03:51.940Z,3923
2016-04-12T15:07:03.512Z,3787
2016-04-12T15:10:14.270Z,3642
2016-04-12T15:13:27.389Z,3445
2016-04-12T15:16:37.427Z,3639
2016-04-12T15:19:54.904Z,3271
2016-04-12T15:22:57.115Z,2999
2016-04-12T15:26:10.173Z,2742
2016-04-12T15:29:22.962Z,2670
2016-04-12T15:32:36.127Z,2344
2016-04-12T15:35:55.151Z,2159
2016-04-12T15:38:57.534Z,2177
2016-04-12T15:42:08.309Z,2021
2016-04-12T15:45:21.365Z,1998
2016-04-12T15:48:34.232Z,1810
2016-04-12T15:51:53.411Z,1717
2016-04-12T15:54:55.749Z,1617
2016-04-12T15:58:05.010Z,1568
2016-04-12T16:01:17.923Z,1591
2016-04-12T16:04:29.088Z,1581
2016-04-12T16:07:40.659Z,1630
2016-04-12T16:10:53.682Z,1759
2016-04-12T16:14:05.130Z,1809
2016-04-12T16:17:18.264Z,1816
2016-04-12T16:20:28.771Z,1683
2016-04-12T16:23:47.591Z,1588
2016-04-12T16:26:55.944Z,1483
2016-04-12T16:29:57.968Z,1389
2016-04-12T16:33:10.353Z,1299
2016-04-12T16:36:23.393Z,1260
2016-04-12T16:39:36.338Z,1253
2016-04-12T16:42:55.455Z,1258
2016-04-12T16:45:57.885Z,1265
2016-04-12T16:49:09.654Z,1294
2016-04-12T16:52:22.909Z,1319
2016-04-12T16:55:33.784Z,1324
2016-04-12T16:58:50.696Z,1313
2016-04-12T17:01:52.939Z,1295
2016-04-12T17:05:05.902Z,1256
2016-04-12T17:08:18.448Z,1202
2016-04-12T17:11:30.988Z,1127
2016-04-12T17:14:50.045Z,1082
2016-04-12T17:17:52.240Z,993
2016-04-12T17:21:05.188Z,908
2016-04-12T17:24:17.650Z,833
2016-04-12T17:27:30.721Z,760
2016-04-12T17:30:47.665Z,670
2016-04-12T17:33:55.768Z,580
2016-04-12T17:36:57.854Z,502
2016-04-12T17:40:08.849Z,428
2016-04-12T17:43:20.107Z,358
2016-04-12T17:46:33.021Z,296
2016-04-12T17:49:51.983Z,240
2016-04-12T17:52:53.803Z,194
2016-04-12T17:56:06.360Z,156
2016-04-12T17:59:19.259Z,122
2016-04-12T18:02:32.173Z,92
2016-04-12T18:05:49.323Z,67
2016-04-12T18:08:57.345Z,47
2016-04-12T18:11:59.400Z,31
2016-04-12T18:15:09.881Z,20
2016-04-12T18:18:19.841Z,13
2016-04-12T18:21:29.474Z,8
2016-04-12T18:24:40.046Z,5
2016-04-12T18:27:52.944Z,3
2016-04-12T18:31:02.392Z,2
2016-04-12T18:34:15.338Z,1
2016-04-12T18:37:25.346Z,1
2016-04-12T18:40:38.104Z,0
2016-04-12T18:43:55.408Z,0
2016-04-12T18:46:57.291Z,0
2016-04-12T18:50:08.427Z,1
2016-04-12T18:53:21.326Z,1
2016-04-12T18:56:34.194Z,1
2016-04-12T18:59:53.015Z,2
2016-04-12T19:02:54.945Z,2
2016-04-12T19:06:08.034Z,2
2016-04-12T19:09:20.167Z,2
2016-04-12T19:12:32.784Z,2
2016-04-12T19:15:51.542Z,2
2016-04-12T19:18:53.284Z,2
2016-04-12T19:22:03.011Z,2
2016-04-12T19:25:15.741Z,2
2016-04-12T19:28:28.311Z,2
2016-04-12T19:31:41.382Z,2
2016-04-12T19:34:54.062Z,2
2016-04-12T19:38:06.869Z,2
2016-04-12T19:41:19.736Z,2
2016-04-12T19:44:32.495Z,2
2016-04-12T19:47:49.753Z,2
2016-04-12T19:50:51.417Z,2
2016-04-12T19:54:04.050Z,2
2016-04-12T19:57:16.796Z,2
2016-04-12T20:00:29.585Z,2
2016-04-12T20:03:48.249Z,2
2016-04-12T20:06:56.023Z,2
2016-04-12T20:09:57.768Z,2
2016-04-12T20:13:10.202Z,2
2016-04-12T20:16:22.960Z,2
2016-04-12T20:19:35.718Z,2
2016-04-12T20:22:53.007Z,2
2016-04-12T20:25:54.750Z,2
2016-04-12T20:29:05.961Z,2
2016-04-12T20:32:18.175Z,2
2016-04-12T20:35:30.808Z,2
2016-04-12T20:38:40.441Z,2
2016-04-12T20:41:52.683Z,2
2016-04-12T20:45:05.005Z,2
2016-04-12T20:48:17.374Z,2
2016-04-12T20:51:27.601Z,2
2016-04-12T20:54:40.234Z,2
2016-04-12T20:57:53.132Z,2
2016-04-12T21:01:05.844Z,2
2016-04-12T21:04:18.198Z,2
2016-04-12T21:07:30.909Z,2
2016-04-12T21:10:49.574Z,2
2016-04-12T21:13:57.285Z,2
2016-04-12T21:16:58.841Z,2
2016-04-12T21:20:11.757Z,2
2016-04-12T21:23:24.187Z,2
2016-04-12T21:26:34.523Z,2
2016-04-12T21:29:52.890Z,2
2016-04-12T21:32:54.617Z,2
2016-04-12T21:36:06.938Z,2
2016-04-12T21:39:16.528Z,2
2016-04-12T21:42:29.113Z,2
2016-04-12T21:45:41.528Z,2
2016-04-12T21:48:52.036Z,2
2016-04-12T21:52:04.747Z,2
2016-04-12T21:55:17.273Z,2
2016-04-12T21:58:26.922Z,2
2016-04-12T22:01:36.430Z,2
2016-04-12T22:04:52.235Z,2
2016-04-12T22:07:53.915Z,2
2016-04-12T22:11:02.861Z,2
2016-04-12T22:14:12.556Z,2
2016-04-12T22:17:24.926Z,2
2016-04-12T22:20:37.356Z,2
2016-04-12T22:23:55.692Z,2
2016-04-12T22:26:57.247Z,2
2016-04-12T22:30:09.880Z,2
2016-04-12T22:33:22.734Z,2
2016-04-12T22:36:34.633Z,2
2016-04-12T22:39:51.673Z,2
2016-04-12T22:42:53.211Z,2
2016-04-12T22:46:04.782Z,2
2016-04-12T22:49:14.763Z,2
2016-04-12T22:52:27.380Z,2
2016-04-12T22:55:44.779Z,2
2016-04-12T22:58:52.560Z,2
2016-04-12T23:02:05.287Z,2
2016-04-12T23:05:16.968Z,6
2016-04-12T23:08:26.279Z,6
2016-04-12T23:11:37.444Z,6
2016-04-12T23:14:52.827Z,6
2016-04-12T23:17:54.257Z,6
2016-04-12T23:21:04.140Z,6
2016-04-12T23:24:14.913Z,6
2016-04-12T23:27:27.580Z,6
2016-04-12T23:30:40.026Z,6
2016-04-12T23:33:52.596Z,6
2016-04-12T23:37:05.104Z,6
2016-04-12T23:40:16.759Z,6
2016-04-12T23:43:28.973Z,6
2016-04-12T23:46:37.590Z,6
2016-04-12T23:49:55.927Z,6
2016-04-12T23:52:57.450Z,6
2016-04-12T23:56:10.005Z,6
2016-04-12T23:59:22.235Z,6
